createdAt,value
2017-12-04T08:00:25.331Z,18.87
2017-12-04T08:02:52.271Z,20.90
2017-12-04T08:05:19.148Z,17.87
2017-12-04T08:07:46.078Z,19.40
2017-12-04T08:10:13.027Z,15.93
2017-12-04T08:12:39.969Z,17.30
2017-12-04T08:15:06.922Z,16.60
2017-12-04T08:17:33.962Z,16.07
2017-12-04T08:20:00.838Z,17.30
2017-12-04T08:22:27.819Z,17.73
2017-12-04T08:24:54.918Z,17.53
2017-12-04T08:27:21.954Z,17.23
2017-12-04T08:29:48.819Z,15.77
2017-12-04T08:32:15.770Z,17.50
2017-12-04T08:34:42.738Z,17.77
2017-12-04T08:37:09.711Z,17.03
2017-12-04T08:39:36.667Z,16.03
2017-12-04T08:44:59.436Z,17.10
2017-12-04T08:47:26.301Z,16.73
2017-12-04T09:01:06.225Z,16.10
2017-12-04T09:03:33.165Z,15.67
2017-12-04T09:14:18.176Z,16.50
2017-12-04T09:16:45.108Z,15.17
2017-12-04T09:19:12.121Z,16.40
2017-12-04T09:21:39.245Z,16.17
2017-12-04T09:24:06.170Z,15.70
2017-12-04T09:26:33.096Z,16.50
2017-12-04T09:29:00.057Z,14.93
2017-12-04T09:31:26.929Z,16.67
2017-12-04T09:36:39.362Z,16.47
2017-12-04T09:39:06.335Z,17.77
2017-12-04T09:41:33.436Z,16.20
2017-12-04T09:46:56.404Z,17.17
2017-12-04T09:49:23.494Z,16.73
2017-12-04T10:00:31.820Z,16.20
2017-12-04T10:02:58.733Z,15.17
2017-12-04T10:05:25.665Z,15.90
2017-12-04T10:07:52.516Z,15.80
2017-12-04T10:10:19.471Z,17.37
2017-12-04T10:12:46.380Z,18.27
2017-12-04T10:15:13.377Z,17.17
2017-12-04T10:17:40.305Z,17.27
2017-12-04T10:20:07.321Z,16.33
2017-12-04T10:22:34.220Z,16.33
2017-12-04T10:25:01.265Z,16.10
2017-12-04T10:27:29.252Z,16.07
2017-12-04T10:29:56.162Z,16.20
2017-12-04T10:32:23.141Z,15.10
2017-12-04T10:40:47.561Z,16.20
2017-12-04T10:43:14.518Z,15.73
2017-12-04T10:45:41.927Z,15.20
2017-12-04T10:48:08.864Z,14.57
2017-12-04T10:50:38.882Z,15.77
2017-12-04T11:09:37.796Z,15.93
2017-12-04T11:12:04.985Z,15.23
2017-12-04T11:14:31.860Z,15.93
2017-12-04T11:16:58.846Z,15.50
2017-12-04T11:19:25.716Z,15.83
2017-12-04T11:21:52.529Z,16.73
2017-12-04T11:24:21.897Z,14.23
2017-12-04T11:26:49.182Z,14.63
2017-12-04T11:29:15.983Z,14.97
2017-12-04T11:31:42.836Z,17.20
2017-12-04T11:34:10.336Z,16.60
2017-12-04T11:36:37.732Z,16.00
2017-12-04T11:39:04.630Z,16.13
2017-12-04T11:41:31.596Z,15.90
2017-12-04T11:43:58.553Z,14.07
2017-12-04T11:46:25.465Z,15.30
2017-12-04T11:48:52.420Z,15.43
2017-12-04T11:51:19.306Z,14.40
2017-12-04T11:53:46.200Z,15.63
2017-12-04T11:56:13.070Z,14.47
2017-12-04T11:58:39.882Z,14.63
2017-12-04T12:01:06.792Z,14.37
2017-12-04T12:03:33.686Z,15.53
2017-12-04T12:06:00.584Z,15.00
2017-12-04T12:08:27.546Z,15.43
2017-12-04T12:10:54.398Z,15.20
2017-12-04T12:13:21.313Z,17.00
2017-12-04T12:15:48.153Z,15.90
2017-12-04T12:18:14.999Z,16.43
2017-12-04T12:20:41.883Z,13.83
2017-12-04T12:23:08.798Z,15.23
2017-12-04T12:25:35.688Z,14.80
2017-12-04T12:28:02.690Z,15.13
2017-12-04T12:30:29.658Z,15.83
2017-12-04T12:32:56.584Z,14.60
2017-12-04T12:35:23.509Z,14.83
2017-12-04T12:37:50.362Z,13.63
2017-12-04T12:40:17.314Z,14.67
2017-12-04T12:42:44.154Z,15.63
2017-12-04T12:45:11.132Z,12.80
2017-12-04T12:47:38.059Z,15.50
2017-12-04T12:50:04.928Z,13.93
2017-12-04T12:52:33.764Z,15.73
2017-12-04T12:55:00.746Z,14.67
2017-12-04T12:57:27.637Z,14.90
2017-12-04T12:59:54.501Z,15.47
2017-12-04T13:02:23.316Z,14.40
2017-12-04T13:04:50.275Z,14.70
2017-12-04T13:07:17.399Z,17.13
2017-12-04T13:09:44.343Z,15.63
2017-12-04T13:12:11.269Z,16.30
2017-12-04T13:14:38.088Z,16.63
2017-12-04T13:17:04.969Z,17.70
2017-12-04T13:19:31.856Z,16.57
2017-12-04T13:21:58.724Z,17.33
2017-12-04T13:24:25.584Z,16.60
2017-12-04T13:26:52.520Z,18.27
2017-12-04T13:29:19.424Z,16.80
2017-12-04T13:31:46.292Z,17.00
2017-12-04T13:34:18.834Z,15.87
2017-12-04T13:36:51.621Z,16.80
2017-12-04T13:39:18.649Z,15.90
2017-12-04T13:41:45.629Z,18.40
2017-12-04T13:44:12.556Z,18.57
2017-12-04T13:46:39.474Z,16.80
2017-12-04T13:49:06.417Z,19.00
2017-12-04T13:51:33.330Z,17.87
2017-12-04T13:54:00.214Z,17.37
2017-12-04T13:56:27.085Z,17.67
2017-12-04T13:58:54.005Z,16.20
2017-12-04T14:01:20.856Z,17.73
2017-12-04T14:03:48.240Z,17.33
2017-12-04T14:06:15.092Z,16.97
2017-12-04T14:08:41.947Z,15.57
2017-12-04T14:11:08.949Z,17.20
2017-12-04T14:13:35.797Z,16.60
2017-12-04T14:16:02.710Z,17.23
2017-12-04T14:18:31.354Z,17.47
2017-12-04T14:20:58.349Z,17.03
2017-12-04T14:23:25.304Z,16.80
2017-12-04T14:25:52.226Z,17.57
2017-12-04T14:28:19.095Z,17.63
2017-12-04T14:30:45.999Z,17.00
2017-12-04T14:33:12.897Z,17.90
2017-12-04T14:35:39.974Z,18.30
2017-12-04T14:38:08.562Z,16.57
2017-12-04T14:40:35.449Z,17.03
2017-12-04T14:43:02.352Z,17.60
2017-12-04T14:45:29.321Z,17.67
2017-12-04T14:47:56.257Z,18.03
2017-12-04T14:50:23.202Z,18.40
2017-12-04T14:52:50.079Z,17.13
2017-12-04T14:55:16.983Z,16.90
2017-12-04T14:57:43.857Z,15.40
2017-12-04T15:00:10.734Z,15.27
2017-12-04T15:02:37.581Z,15.70
2017-12-04T15:05:04.491Z,16.10
2017-12-04T15:07:31.322Z,17.70
2017-12-04T15:09:58.667Z,16.07
2017-12-04T15:12:25.551Z,16.90
2017-12-04T15:14:52.371Z,15.50
2017-12-04T15:17:19.310Z,16.83
2017-12-04T15:19:46.241Z,15.50
2017-12-04T15:22:13.105Z,15.63
2017-12-04T15:24:40.705Z,16.77
2017-12-04T15:27:07.616Z,14.97
2017-12-04T15:29:34.503Z,16.50
2017-12-04T15:32:01.369Z,15.27
2017-12-04T15:34:28.374Z,15.90
2017-12-04T15:36:55.338Z,15.77
2017-12-04T15:39:23.161Z,16.07
2017-12-04T15:41:50.047Z,16.20
2017-12-04T15:44:16.948Z,14.90
2017-12-04T15:46:43.825Z,15.23
2017-12-04T15:49:10.737Z,14.23
2017-12-04T15:51:37.656Z,15.77
2017-12-04T15:54:04.530Z,15.63
2017-12-04T15:56:31.495Z,15.43
2017-12-04T15:58:58.385Z,14.43
2017-12-04T16:01:25.260Z,14.60
2017-12-04T16:03:52.138Z,15.80
2017-12-04T16:06:19.028Z,15.87
2017-12-04T16:08:46.162Z,15.30
2017-12-04T16:11:13.038Z,15.87
2017-12-04T16:13:40.040Z,14.83
2017-12-04T16:16:07.069Z,16.10
2017-12-04T16:18:34.292Z,16.00
2017-12-04T16:21:01.099Z,14.80
2017-12-04T16:23:27.954Z,15.30
2017-12-04T16:25:54.736Z,15.70
2017-12-04T16:28:21.677Z,16.50
2017-12-04T16:30:48.682Z,14.17
2017-12-04T16:33:15.606Z,16.23
2017-12-04T16:35:42.481Z,15.30
2017-12-04T16:38:09.314Z,16.40
2017-12-04T16:40:36.148Z,14.30
2017-12-04T16:43:02.972Z,14.80
2017-12-04T16:45:29.784Z,15.50
2017-12-04T16:47:56.631Z,14.83
2017-12-04T16:50:23.726Z,16.07
2017-12-04T16:52:50.557Z,15.27
2017-12-04T16:55:17.432Z,15.83
2017-12-04T16:57:44.245Z,17.33
2017-12-04T17:00:11.066Z,15.27
2017-12-04T17:02:37.888Z,15.87
2017-12-04T17:05:12.288Z,16.60
2017-12-04T17:07:39.138Z,15.83
2017-12-04T17:10:06.080Z,15.73
2017-12-04T17:12:32.930Z,13.03
2017-12-04T17:14:59.802Z,13.60
2017-12-04T17:17:26.624Z,13.60
2017-12-04T17:22:36.081Z,13.53
2017-12-04T17:25:03.150Z,14.67
2017-12-04T17:27:30.057Z,12.13
2017-12-04T17:33:01.424Z,15.13
2017-12-04T17:35:28.964Z,15.23
2017-12-04T17:37:55.779Z,15.10
2017-12-04T17:40:22.574Z,15.30
2017-12-04T17:42:49.315Z,14.13
2017-12-04T17:45:16.111Z,15.57
2017-12-04T17:47:42.915Z,15.37
2017-12-04T17:50:09.726Z,16.77
2017-12-04T17:52:36.528Z,16.00
2017-12-04T17:55:03.294Z,14.80
2017-12-04T17:57:30.150Z,15.03
2017-12-04T17:59:56.921Z,14.83
2017-12-04T18:02:23.708Z,16.70
2017-12-04T18:04:50.536Z,15.97
2017-12-04T18:07:17.309Z,16.43
2017-12-04T18:09:45.034Z,15.93
2017-12-04T18:12:11.857Z,15.47
2017-12-04T18:14:38.603Z,14.53
2017-12-04T18:17:05.435Z,15.63
2017-12-04T18:19:32.572Z,14.47
2017-12-04T18:21:59.495Z,15.90
2017-12-04T18:24:26.309Z,16.03
2017-12-04T18:26:53.118Z,13.80
2017-12-04T18:32:15.561Z,15.37
2017-12-04T18:34:42.333Z,15.97
2017-12-04T18:37:09.681Z,13.93
2017-12-04T18:39:36.872Z,16.63
2017-12-04T18:42:03.652Z,15.00
2017-12-04T18:44:30.660Z,16.50
2017-12-04T18:46:57.816Z,14.83
2017-12-04T18:49:24.651Z,15.00
2017-12-04T18:51:51.487Z,15.00
2017-12-04T18:54:18.631Z,14.47
2017-12-04T18:56:45.454Z,14.20
2017-12-04T18:59:12.310Z,15.23
2017-12-04T19:01:39.131Z,15.57
2017-12-04T19:04:05.951Z,16.83
2017-12-04T19:06:32.818Z,15.47
2017-12-04T19:09:03.244Z,15.63
2017-12-04T19:11:30.235Z,15.43
2017-12-04T19:13:57.092Z,14.67
2017-12-04T19:16:24.645Z,15.20
2017-12-04T19:18:52.224Z,14.63
2017-12-04T19:21:19.125Z,15.33
2017-12-04T19:23:45.967Z,16.37
2017-12-04T19:26:12.755Z,15.20
2017-12-04T19:28:39.568Z,16.10
2017-12-04T19:31:06.441Z,15.23
2017-12-04T19:33:33.232Z,15.57
2017-12-04T19:36:00.449Z,15.57
2017-12-04T19:38:27.322Z,16.40
2017-12-04T19:40:54.141Z,16.07
2017-12-04T19:43:20.974Z,16.73
2017-12-04T19:45:47.858Z,16.60
2017-12-04T19:48:14.667Z,15.43
2017-12-04T19:50:41.532Z,14.77
2017-12-04T19:53:08.378Z,14.87
2017-12-04T19:55:35.229Z,16.57
2017-12-04T19:58:02.111Z,16.07
2017-12-04T20:00:28.911Z,16.23
2017-12-04T20:02:55.815Z,15.87
2017-12-04T20:05:22.572Z,14.60
2017-12-04T20:07:49.386Z,17.00
2017-12-04T20:10:16.283Z,15.90
2017-12-04T20:12:43.030Z,14.83
2017-12-04T20:15:09.912Z,17.47
2017-12-04T20:17:36.674Z,16.67
2017-12-04T20:20:03.497Z,16.57
2017-12-04T20:22:30.306Z,17.43
2017-12-04T20:24:57.144Z,16.60
2017-12-04T20:27:23.955Z,16.73
2017-12-04T20:29:50.868Z,18.67
2017-12-04T20:32:17.641Z,18.03
2017-12-04T20:34:44.413Z,17.97
2017-12-04T20:37:11.735Z,17.10
2017-12-04T20:39:38.559Z,16.67
2017-12-04T20:42:05.294Z,15.83
2017-12-04T20:44:32.115Z,15.33
2017-12-04T20:46:59.939Z,16.00
2017-12-04T20:49:26.826Z,14.70
2017-12-04T20:51:53.763Z,16.27
2017-12-04T20:54:20.548Z,17.17
2017-12-04T20:56:47.305Z,16.20
2017-12-04T20:59:14.160Z,16.33
2017-12-04T21:01:40.927Z,14.33
2017-12-04T21:04:07.807Z,16.10
2017-12-04T21:06:34.608Z,14.90
2017-12-04T21:09:07.193Z,14.50
2017-12-04T21:11:39.786Z,15.87
2017-12-04T21:17:09.383Z,16.17
2017-12-04T21:19:36.166Z,15.63
2017-12-04T21:22:04.000Z,15.60
2017-12-04T21:24:30.887Z,15.80
2017-12-04T21:26:57.746Z,14.97
2017-12-04T21:29:24.567Z,15.10
2017-12-04T21:31:51.458Z,15.30
2017-12-04T21:34:18.276Z,14.00
2017-12-04T21:36:45.121Z,14.90
2017-12-04T21:39:12.018Z,15.43
2017-12-04T21:41:38.862Z,15.10
2017-12-04T21:44:05.654Z,15.53
2017-12-04T21:46:32.429Z,15.90
2017-12-04T21:48:59.213Z,14.77
2017-12-04T21:51:26.133Z,15.13
2017-12-04T21:53:52.997Z,14.23
2017-12-04T21:56:19.919Z,15.50
2017-12-04T21:58:46.668Z,15.23
2017-12-04T22:03:48.574Z,15.33
2017-12-04T22:06:15.414Z,14.50
2017-12-04T22:08:42.189Z,15.30
2017-12-04T22:11:09.061Z,15.03
2017-12-04T22:13:39.707Z,15.77
2017-12-04T22:16:06.491Z,14.80
2017-12-04T22:18:33.995Z,15.17
2017-12-04T22:21:00.828Z,15.17
2017-12-04T22:23:27.722Z,15.77
2017-12-04T22:25:57.150Z,15.67
2017-12-04T22:28:23.951Z,14.30
2017-12-04T22:30:50.962Z,14.30
2017-12-04T22:33:17.760Z,16.47
2017-12-04T22:35:46.233Z,14.30
2017-12-04T22:38:14.951Z,14.83
2017-12-04T22:40:42.852Z,15.20
2017-12-04T22:43:09.753Z,13.73
2017-12-04T22:45:36.607Z,14.37
2017-12-04T22:48:03.362Z,13.77
2017-12-04T22:50:30.225Z,14.57
2017-12-04T22:52:57.198Z,12.97
2017-12-04T22:55:24.132Z,14.37
2017-12-04T22:57:50.912Z,13.87
2017-12-04T23:00:23.652Z,13.90
2017-12-04T23:02:50.523Z,15.67
2017-12-04T23:05:17.400Z,13.97
2017-12-04T23:07:44.179Z,13.80
2017-12-04T23:10:11.060Z,14.00
2017-12-04T23:12:37.870Z,14.57
2017-12-04T23:15:04.706Z,13.63
2017-12-04T23:17:31.489Z,13.70
2017-12-04T23:19:58.278Z,14.27
2017-12-04T23:22:25.162Z,14.50
2017-12-04T23:24:52.106Z,12.77
2017-12-04T23:27:18.999Z,12.67
2017-12-04T23:29:45.832Z,13.07
2017-12-04T23:32:12.719Z,12.30
2017-12-04T23:34:39.633Z,13.40
2017-12-04T23:37:06.490Z,13.50
2017-12-04T23:39:33.363Z,11.07
2017-12-04T23:42:00.146Z,12.50
2017-12-04T23:44:26.975Z,12.33
2017-12-04T23:46:53.718Z,13.63
2017-12-04T23:49:20.496Z,12.73
2017-12-04T23:51:47.476Z,13.10
2017-12-04T23:54:21.143Z,12.80
2017-12-04T23:56:47.951Z,13.70
2017-12-04T23:59:14.776Z,13.23
